EGKK Airport Information

Runway Information
Runway 08L Length 8415 ft width 148 ft
Elevation 195 ft Threshold 1053 ft Heading 78
Runway 26R Length 8415 ft Width 148 ft
Elevation 195 ft Threshold 1366 ft Heading 258
Runway 08R Length 10364 ft width 148 ft
Elevation 196 ft Threshold 1288 ft Heading 78
Runway 26L Length 10364 ft Width 148 ft
Elevation 196 ft Threshold 878 ft Heading 258
Airport Frequencies
Type APP Name APP Frequency 126.825 MHZ
Type ATIS Name ATIS Frequency 136.525 MHZ
Type CLD Name CLNC DEL Frequency 121.95 MHZ
Type GND Name GND Frequency 121.8 MHZ
Type TWR Name TWR Frequency 124.225 MHZ
Airport Navaids
Type NDB Name Gatwick Frequency 338 KHZ
Type NDB Name Gatwick Frequency 365 KHZ
Airport Weather Information & NOTAM
ADDS - METARS form results

(0132 UTC 19 August 2018)
 
METAR text: EGKK 190120Z 21005KT 180V250 9999 BKN021 18/16 Q1021
Conditions at: EGKK (LONDON/GATWICK A, GB) observed 0120 UTC 19 August 2018
Temperature: 18.0°C (64°F)
Dewpoint: 16.0°C (61°F) [RH = 88%]
Pressure (altimeter): 30.15 inches Hg (1021.0 mb)
Winds: from the SSW (210 degrees) at 6 MPH (5 knots; 2.6 m/s)
Visibility: 6 or more miles (10+ km)
Ceiling: 2100 feet AGL
Clouds: broken clouds at 2100 feet AGL
Weather: no significant weather observed at this time

METAR text: EGKK 190050Z 22005KT 180V250 9999 BKN021 18/15 Q1021
Conditions at: EGKK (LONDON/GATWICK A, GB) observed 0050 UTC 19 August 2018
Temperature: 18.0°C (64°F)
Dewpoint: 15.0°C (59°F) [RH = 83%]
Pressure (altimeter): 30.15 inches Hg (1021.0 mb)
Winds: from the SW (220 degrees) at 6 MPH (5 knots; 2.6 m/s)
Visibility: 6 or more miles (10+ km)
Ceiling: 2100 feet AGL
Clouds: broken clouds at 2100 feet AGL
Weather: no significant weather observed at this time